createdAt,value
2022-10-30T00:00:36.041Z,59.80
2022-10-30T00:03:05.578Z,59.91
2022-10-30T00:05:33.745Z,59.57
2022-10-30T00:08:02.076Z,59.66
2022-10-30T00:10:30.204Z,59.53
2022-10-30T00:12:58.188Z,59.45
2022-10-30T00:15:26.205Z,59.48
2022-10-30T00:17:54.795Z,59.49
2022-10-30T00:20:24.337Z,59.49
2022-10-30T00:22:52.393Z,59.52
2022-10-30T00:25:20.443Z,59.57
2022-10-30T00:27:48.448Z,59.68
2022-10-30T00:30:17.388Z,59.83
2022-10-30T00:32:45.405Z,59.95
2022-10-30T00:35:13.580Z,59.82
2022-10-30T00:37:43.011Z,60.25
2022-10-30T00:40:16.327Z,59.73
2022-10-30T00:42:44.969Z,59.93
2022-10-30T00:45:13.649Z,59.90
2022-10-30T00:47:46.203Z,59.58
2022-10-30T00:50:17.342Z,59.70
2022-10-30T00:52:52.315Z,59.19
2022-10-30T00:55:23.849Z,59.46
2022-10-30T00:57:53.212Z,59.27
2022-10-30T01:00:23.298Z,58.92
2022-10-30T01:02:52.392Z,59.04
2022-10-30T01:05:23.932Z,58.96
2022-10-30T01:07:53.381Z,58.66
2022-10-30T01:10:22.388Z,58.71
2022-10-30T01:12:52.185Z,58.51
2022-10-30T01:15:27.948Z,58.38
2022-10-30T01:18:12.433Z,58.21
2022-10-30T01:20:55.060Z,58.23
2022-10-30T01:23:36.967Z,57.81
2022-10-30T01:26:13.075Z,57.87
2022-10-30T01:29:00.257Z,57.71
2022-10-30T01:31:42.058Z,57.71
2022-10-30T01:34:19.838Z,57.77
2022-10-30T01:36:56.023Z,57.91
2022-10-30T01:39:27.987Z,57.73
2022-10-30T01:41:56.623Z,57.80
2022-10-30T01:44:29.661Z,57.74
2022-10-30T01:47:21.417Z,57.48
2022-10-30T01:50:10.667Z,57.45
2022-10-30T01:52:47.593Z,57.34
2022-10-30T01:55:31.553Z,57.42
2022-10-30T01:58:07.313Z,57.32
2022-10-30T02:00:38.967Z,57.30
2022-10-30T02:03:07.212Z,57.32
2022-10-30T02:05:42.628Z,57.12
2022-10-30T02:08:11.835Z,57.42
2022-10-30T02:10:43.888Z,57.50
2022-10-30T02:13:12.454Z,57.65
2022-10-30T02:15:42.738Z,57.85
2022-10-30T02:18:11.061Z,57.68
2022-10-30T02:20:42.376Z,57.74
2022-10-30T02:23:13.570Z,57.56
2022-10-30T02:25:41.681Z,57.43
2022-10-30T02:28:11.024Z,57.38
2022-10-30T02:30:39.529Z,57.49
2022-10-30T02:33:07.625Z,57.40
2022-10-30T02:35:36.165Z,57.48
2022-10-30T02:38:05.596Z,57.43
2022-10-30T02:40:33.639Z,57.34
2022-10-30T02:43:01.680Z,57.74
2022-10-30T02:45:30.915Z,57.51
2022-10-30T02:48:01.026Z,57.38
2022-10-30T02:50:29.842Z,57.65
2022-10-30T02:53:00.114Z,57.46
2022-10-30T02:55:30.465Z,57.46
2022-10-30T02:57:59.284Z,57.57
2022-10-30T03:00:27.390Z,57.51
2022-10-30T03:02:58.944Z,57.48
2022-10-30T03:05:27.068Z,57.61
2022-10-30T03:07:56.395Z,57.58
2022-10-30T03:10:24.804Z,57.88
2022-10-30T03:12:55.013Z,58.22
2022-10-30T03:15:23.092Z,58.57
2022-10-30T03:17:52.799Z,58.41
2022-10-30T03:20:21.426Z,58.25
2022-10-30T03:22:49.445Z,58.55
2022-10-30T03:25:23.762Z,58.50
2022-10-30T03:27:57.506Z,58.66
2022-10-30T03:30:25.820Z,58.48
2022-10-30T03:32:53.996Z,58.31
2022-10-30T03:35:22.121Z,58.62
2022-10-30T03:37:50.610Z,58.21
2022-10-30T03:40:19.840Z,58.19
2022-10-30T03:42:47.965Z,58.29
2022-10-30T03:45:17.632Z,58.11
2022-10-30T03:47:45.909Z,57.89
2022-10-30T03:50:13.921Z,58.05
2022-10-30T03:52:41.988Z,58.38
2022-10-30T03:55:10.731Z,58.37
2022-10-30T03:57:41.761Z,58.71
2022-10-30T04:00:15.635Z,58.50
2022-10-30T04:02:53.669Z,58.27
2022-10-30T04:05:23.650Z,58.58
2022-10-30T04:07:57.688Z,58.80
2022-10-30T04:10:26.384Z,58.91
2022-10-30T04:13:01.664Z,58.58
2022-10-30T04:15:29.915Z,58.12
2022-10-30T04:18:00.197Z,57.99
2022-10-30T04:20:29.072Z,58.00
2022-10-30T04:22:58.133Z,58.16
2022-10-30T04:25:27.216Z,57.75
2022-10-30T04:27:57.918Z,58.00
2022-10-30T04:30:27.258Z,57.64
2022-10-30T04:32:57.792Z,57.44
2022-10-30T04:35:29.475Z,57.70
2022-10-30T04:37:58.800Z,57.31
2022-10-30T04:40:29.287Z,57.13
2022-10-30T04:43:03.033Z,57.31
2022-10-30T04:45:31.324Z,57.50
2022-10-30T04:48:03.770Z,57.50
2022-10-30T04:50:34.752Z,57.58
2022-10-30T04:53:04.346Z,57.62
2022-10-30T04:55:33.082Z,57.65
2022-10-30T04:58:03.026Z,58.00
2022-10-30T05:00:34.111Z,57.74
2022-10-30T05:03:17.220Z,57.88
2022-10-30T05:05:47.525Z,58.09
2022-10-30T05:08:15.669Z,58.52
2022-10-30T05:10:44.322Z,58.61
2022-10-30T05:13:13.494Z,58.89
2022-10-30T05:15:43.485Z,59.28
2022-10-30T05:18:11.706Z,59.48
2022-10-30T05:20:39.688Z,60.03
2022-10-30T05:23:10.145Z,59.82
2022-10-30T05:25:38.724Z,59.77
2022-10-30T05:28:08.873Z,59.34
2022-10-30T05:30:43.679Z,58.97
2022-10-30T05:33:23.655Z,58.94
2022-10-30T05:35:51.947Z,58.95
2022-10-30T05:38:21.471Z,58.95
2022-10-30T05:40:49.953Z,59.21
2022-10-30T05:43:18.160Z,59.16
2022-10-30T05:45:49.387Z,59.27
2022-10-30T05:48:19.266Z,59.83
2022-10-30T05:50:48.212Z,59.83
2022-10-30T05:53:27.252Z,60.08
2022-10-30T05:55:57.963Z,60.16
2022-10-30T05:58:28.205Z,59.91
2022-10-30T06:00:58.645Z,59.87
2022-10-30T06:03:40.278Z,59.62
2022-10-30T06:06:08.713Z,59.75
2022-10-30T06:08:38.552Z,59.66
2022-10-30T06:11:22.770Z,59.72
2022-10-30T06:13:55.322Z,59.77
2022-10-30T06:16:35.583Z,59.73
2022-10-30T06:19:26.376Z,59.59
2022-10-30T06:22:00.117Z,59.77
2022-10-30T06:24:50.725Z,59.63
2022-10-30T06:27:31.123Z,59.74
2022-10-30T06:29:59.185Z,59.64
2022-10-30T06:32:27.716Z,59.35
2022-10-30T06:34:56.463Z,59.29
2022-10-30T06:37:25.651Z,59.06
2022-10-30T06:39:55.207Z,58.88
2022-10-30T06:42:47.388Z,58.86
2022-10-30T06:45:31.348Z,58.89
2022-10-30T06:48:01.750Z,58.96
2022-10-30T06:50:34.699Z,59.00
2022-10-30T06:53:02.765Z,59.11
2022-10-30T06:55:32.199Z,59.15
2022-10-30T06:58:20.687Z,59.22
2022-10-30T07:00:55.146Z,59.20
2022-10-30T07:03:35.626Z,59.49
2022-10-30T07:06:04.104Z,59.64
2022-10-30T07:08:33.335Z,59.57
2022-10-30T07:11:02.987Z,59.24
2022-10-30T07:13:49.704Z,59.02
2022-10-30T07:16:46.912Z,58.88
2022-10-30T07:19:15.202Z,58.82
2022-10-30T07:21:43.763Z,58.79
2022-10-30T07:24:11.881Z,58.71
2022-10-30T07:26:51.478Z,58.37
2022-10-30T07:29:42.270Z,58.37
2022-10-30T07:32:25.909Z,58.45
2022-10-30T07:35:10.740Z,58.97
2022-10-30T07:37:57.676Z,58.77
2022-10-30T07:40:38.087Z,58.00
2022-10-30T07:43:30.571Z,57.51
2022-10-30T07:46:33.081Z,57.48
2022-10-30T07:49:19.420Z,57.61
2022-10-30T07:51:51.386Z,57.82
2022-10-30T07:54:19.961Z,57.80
2022-10-30T07:56:48.924Z,58.32
2022-10-30T07:59:20.892Z,58.45
2022-10-30T08:02:01.902Z,57.89
2022-10-30T08:04:50.264Z,57.51
2022-10-30T08:07:37.212Z,56.61
2022-10-30T08:10:06.848Z,55.41
2022-10-30T08:12:36.076Z,54.22
2022-10-30T08:15:06.397Z,53.58
2022-10-30T08:17:42.062Z,52.78
2022-10-30T08:20:11.452Z,51.67
2022-10-30T08:22:46.265Z,50.26
2022-10-30T08:25:14.740Z,49.34
2022-10-30T08:27:51.635Z,49.51
2022-10-30T08:30:21.404Z,48.36
2022-10-30T08:32:51.304Z,47.99
2022-10-30T08:35:48.989Z,47.70
2022-10-30T08:38:17.108Z,47.12
2022-10-30T08:40:46.495Z,45.99
2022-10-30T08:43:14.652Z,45.91
2022-10-30T08:45:44.206Z,45.93
2022-10-30T08:48:17.720Z,45.44
2022-10-30T08:50:46.429Z,45.07
2022-10-30T08:53:20.521Z,45.00
2022-10-30T08:55:49.563Z,44.18
2022-10-30T08:58:25.168Z,44.00
2022-10-30T09:01:00.204Z,43.74
2022-10-30T09:03:58.479Z,43.12
2022-10-30T09:06:55.634Z,44.28
2022-10-30T09:09:23.611Z,42.84
2022-10-30T09:11:54.813Z,43.19
2022-10-30T09:14:22.875Z,43.11
2022-10-30T09:16:52.260Z,41.77
2022-10-30T09:19:22.303Z,42.23
2022-10-30T09:21:50.888Z,42.19
2022-10-30T09:24:18.941Z,41.79
2022-10-30T09:26:53.026Z,41.65
2022-10-30T09:29:26.349Z,41.23
2022-10-30T09:32:19.447Z,41.01
2022-10-30T09:34:53.731Z,40.79
2022-10-30T09:37:35.328Z,40.59
2022-10-30T09:40:04.484Z,41.35
2022-10-30T09:42:42.384Z,41.80
2022-10-30T09:45:45.748Z,41.85
2022-10-30T09:49:20.007Z,41.24
2022-10-30T09:52:07.698Z,40.58
2022-10-30T09:54:54.930Z,39.25
2022-10-30T09:57:32.071Z,38.38
2022-10-30T10:00:07.227Z,37.51
2022-10-30T10:02:54.547Z,37.34
2022-10-30T10:05:26.967Z,36.38
2022-10-30T10:08:25.755Z,36.31
2022-10-30T10:11:18.742Z,36.26
2022-10-30T10:13:51.579Z,36.54
2022-10-30T10:16:21.706Z,36.30
2022-10-30T10:18:53.068Z,35.44
2022-10-30T10:21:26.279Z,35.32
2022-10-30T10:23:57.433Z,35.23
2022-10-30T10:26:30.946Z,35.03
2022-10-30T10:29:15.485Z,35.15
2022-10-30T10:31:52.711Z,34.99
2022-10-30T10:34:36.728Z,34.30
2022-10-30T10:37:16.152Z,33.31
2022-10-30T10:40:04.823Z,32.92
2022-10-30T10:42:39.954Z,32.93
2022-10-30T10:45:22.985Z,31.72
2022-10-30T10:48:08.836Z,32.00
2022-10-30T10:50:43.090Z,32.14
2022-10-30T10:53:16.395Z,31.91
2022-10-30T10:55:50.076Z,32.46
2022-10-30T10:58:28.178Z,32.64
2022-10-30T11:00:59.078Z,31.94
2022-10-30T11:03:37.443Z,31.72
2022-10-30T11:06:19.294Z,31.02
2022-10-30T11:08:48.421Z,30.00
2022-10-30T11:11:17.789Z,30.71
2022-10-30T11:13:46.483Z,30.13
2022-10-30T11:16:27.030Z,30.06
2022-10-30T11:18:59.175Z,29.14
2022-10-30T11:21:28.840Z,29.15
2022-10-30T11:23:56.848Z,28.84
2022-10-30T11:26:32.802Z,28.58
2022-10-30T11:29:05.883Z,28.07
2022-10-30T11:31:37.876Z,28.37
2022-10-30T11:34:24.415Z,28.72
2022-10-30T11:36:53.980Z,29.04
2022-10-30T11:39:23.523Z,29.17
2022-10-30T11:41:58.023Z,28.13
2022-10-30T11:44:30.417Z,28.32
2022-10-30T11:46:59.178Z,27.67
2022-10-30T11:49:38.415Z,27.62
2022-10-30T11:52:07.723Z,27.87
2022-10-30T11:54:39.543Z,26.66
2022-10-30T11:57:21.667Z,25.27
2022-10-30T11:59:51.785Z,26.49
2022-10-30T12:02:23.178Z,26.13
2022-10-30T12:04:52.632Z,26.20
2022-10-30T12:07:27.820Z,26.87
2022-10-30T12:09:57.613Z,27.28
2022-10-30T12:12:31.632Z,27.72
2022-10-30T12:15:11.827Z,28.52
2022-10-30T12:17:41.711Z,29.16
2022-10-30T12:20:16.001Z,29.64
2022-10-30T12:22:44.159Z,29.38
2022-10-30T12:25:23.500Z,30.16
2022-10-30T12:28:00.532Z,30.26
2022-10-30T12:30:32.153Z,29.27
2022-10-30T12:33:05.549Z,29.38
2022-10-30T12:35:42.083Z,29.48
2022-10-30T12:38:18.644Z,29.77
2022-10-30T12:41:01.264Z,29.87
2022-10-30T12:43:34.670Z,30.87
2022-10-30T12:46:29.195Z,30.55
2022-10-30T12:49:04.416Z,31.28
2022-10-30T12:51:37.213Z,31.66
2022-10-30T12:54:13.920Z,31.28
2022-10-30T12:56:45.279Z,31.74
2022-10-30T12:59:28.785Z,32.96
2022-10-30T13:02:01.034Z,34.02
2022-10-30T13:04:34.453Z,34.15
2022-10-30T13:07:07.941Z,34.11
2022-10-30T13:09:41.431Z,33.32
2022-10-30T13:12:13.772Z,33.25
2022-10-30T13:14:48.234Z,32.66
2022-10-30T13:17:16.767Z,32.71
2022-10-30T13:19:47.163Z,32.86
2022-10-30T13:22:21.085Z,32.37
2022-10-30T13:24:59.266Z,31.65
2022-10-30T13:27:41.129Z,31.63
2022-10-30T13:30:15.792Z,32.09
2022-10-30T13:32:57.921Z,32.28
2022-10-30T13:35:34.189Z,32.19
2022-10-30T13:38:10.405Z,33.44
2022-10-30T13:40:43.675Z,34.94
2022-10-30T13:43:23.092Z,36.09
2022-10-30T13:46:11.288Z,36.78
2022-10-30T13:48:55.156Z,37.96
2022-10-30T13:51:38.452Z,38.09
2022-10-30T13:54:17.946Z,38.42
2022-10-30T13:56:48.478Z,38.10
2022-10-30T13:59:39.068Z,38.17
2022-10-30T14:02:18.038Z,37.86
2022-10-30T14:04:53.761Z,37.34
2022-10-30T14:07:31.679Z,36.82
2022-10-30T14:10:07.344Z,37.13
2022-10-30T14:12:52.347Z,36.72
2022-10-30T14:15:27.541Z,36.19
2022-10-30T14:18:29.009Z,35.53
2022-10-30T14:20:58.850Z,36.08
2022-10-30T14:23:32.915Z,36.40
2022-10-30T14:26:25.065Z,37.04
2022-10-30T14:28:56.653Z,37.52
2022-10-30T14:31:35.808Z,37.94
2022-10-30T14:34:05.476Z,38.17
2022-10-30T14:36:52.016Z,38.49
2022-10-30T14:39:31.064Z,38.93
2022-10-30T14:42:09.749Z,39.68
2022-10-30T14:44:57.515Z,40.66
2022-10-30T14:47:51.849Z,41.06
2022-10-30T14:50:39.340Z,41.55
2022-10-30T14:53:22.995Z,41.98
2022-10-30T14:56:00.310Z,42.33
2022-10-30T14:58:31.003Z,42.96
2022-10-30T15:01:29.022Z,43.22
2022-10-30T15:04:16.019Z,43.71
2022-10-30T15:06:55.462Z,44.10
2022-10-30T15:09:35.482Z,44.51
2022-10-30T15:12:32.245Z,44.65
2022-10-30T15:15:03.873Z,45.12
2022-10-30T15:17:35.406Z,45.51
2022-10-30T15:20:08.097Z,45.81
2022-10-30T15:22:37.844Z,45.95
2022-10-30T15:25:14.561Z,46.33
2022-10-30T15:27:46.291Z,46.56
2022-10-30T15:30:18.940Z,46.77
2022-10-30T15:32:46.978Z,47.07
2022-10-30T15:35:18.445Z,47.11
2022-10-30T15:38:07.778Z,46.83
2022-10-30T15:40:37.658Z,47.55
2022-10-30T15:43:08.235Z,47.79
2022-10-30T15:45:38.465Z,48.04
2022-10-30T15:48:10.430Z,47.92
2022-10-30T15:50:42.219Z,48.28
2022-10-30T15:53:19.452Z,48.27
2022-10-30T15:55:48.334Z,48.79
2022-10-30T15:58:19.680Z,48.82
2022-10-30T16:00:57.164Z,48.84
2022-10-30T16:03:25.811Z,49.25
2022-10-30T16:06:05.460Z,49.01
2022-10-30T16:08:44.604Z,49.12
2022-10-30T16:11:12.969Z,49.86
2022-10-30T16:13:41.332Z,49.79
2022-10-30T16:18:48.897Z,50.07
2022-10-30T16:21:19.056Z,50.27
2022-10-30T16:23:53.727Z,50.21
2022-10-30T16:26:29.988Z,50.76
2022-10-30T16:29:00.026Z,51.07
2022-10-30T16:31:34.129Z,51.03
2022-10-30T16:34:04.264Z,51.29
2022-10-30T16:36:32.647Z,51.54
2022-10-30T16:39:02.683Z,51.54
2022-10-30T16:41:32.188Z,51.43
2022-10-30T16:44:15.719Z,51.24
2022-10-30T16:46:49.578Z,51.61
2022-10-30T16:49:20.156Z,52.01
2022-10-30T16:51:52.117Z,52.24
2022-10-30T16:54:24.780Z,52.20
2022-10-30T16:56:56.632Z,52.39
2022-10-30T16:59:32.887Z,52.20
2022-10-30T17:02:06.020Z,52.60
2022-10-30T17:04:36.194Z,52.63
2022-10-30T17:07:18.622Z,52.77
2022-10-30T17:09:50.144Z,52.94
2022-10-30T17:12:21.996Z,53.00
2022-10-30T17:15:02.871Z,52.96
2022-10-30T17:17:33.293Z,53.32
2022-10-30T17:20:04.602Z,53.26
2022-10-30T17:22:33.375Z,53.57
2022-10-30T17:25:02.858Z,53.80
2022-10-30T17:27:47.258Z,53.74
2022-10-30T17:30:37.952Z,53.68
2022-10-30T17:33:24.899Z,53.69
2022-10-30T17:38:22.344Z,53.99
2022-10-30T17:40:51.761Z,54.20
2022-10-30T17:43:19.832Z,54.22
2022-10-30T17:45:47.865Z,54.13
2022-10-30T17:48:17.392Z,54.33
2022-10-30T17:50:45.997Z,54.64
2022-10-30T17:53:16.858Z,55.04
2022-10-30T17:55:47.053Z,55.00
2022-10-30T17:58:16.456Z,54.81
2022-10-30T18:00:44.476Z,54.94
2022-10-30T18:03:12.471Z,55.00
2022-10-30T18:05:43.403Z,54.79
2022-10-30T18:08:11.460Z,54.85
2022-10-30T18:10:39.498Z,55.09
2022-10-30T18:13:07.548Z,55.39
2022-10-30T18:15:40.862Z,55.50
2022-10-30T18:18:08.875Z,55.76
2022-10-30T18:20:37.133Z,55.90
2022-10-30T18:23:05.420Z,55.87
2022-10-30T18:25:36.108Z,56.19
2022-10-30T18:28:04.191Z,56.38
2022-10-30T18:30:32.248Z,56.78
2022-10-30T18:33:01.954Z,57.41
2022-10-30T18:35:32.613Z,57.69
2022-10-30T18:38:01.601Z,57.45
2022-10-30T18:40:30.308Z,57.71
2022-10-30T18:42:58.779Z,57.42
2022-10-30T18:45:29.215Z,57.53
2022-10-30T18:48:00.863Z,57.59
2022-10-30T18:50:31.850Z,57.72
2022-10-30T18:53:01.017Z,58.05
2022-10-30T18:55:34.405Z,58.25
2022-10-30T18:58:03.010Z,58.72
2022-10-30T19:00:39.718Z,58.81
2022-10-30T19:03:19.345Z,58.54
2022-10-30T19:05:50.898Z,58.59
2022-10-30T19:08:19.175Z,58.47
2022-10-30T19:10:48.357Z,58.43
2022-10-30T19:13:19.818Z,58.17
2022-10-30T19:15:50.273Z,58.15
2022-10-30T19:18:19.376Z,58.06
2022-10-30T19:21:04.081Z,57.86
2022-10-30T19:23:33.887Z,57.45
2022-10-30T19:26:02.007Z,57.36
2022-10-30T19:28:30.858Z,57.23
2022-10-30T19:30:58.999Z,57.61
2022-10-30T19:33:27.108Z,58.01
2022-10-30T19:35:57.296Z,57.64
2022-10-30T19:38:26.021Z,57.12
2022-10-30T19:40:54.402Z,56.95
2022-10-30T19:43:22.480Z,56.86
2022-10-30T19:45:52.849Z,56.73
2022-10-30T19:48:47.821Z,56.65
2022-10-30T19:51:13.661Z,56.52
2022-10-30T19:53:41.693Z,56.48
2022-10-30T19:56:12.126Z,56.42
2022-10-30T19:58:40.143Z,56.37
2022-10-30T20:01:08.230Z,56.39
2022-10-30T20:03:36.260Z,56.48
2022-10-30T20:06:04.512Z,56.63
2022-10-30T20:08:33.875Z,56.45
2022-10-30T20:11:02.124Z,56.48
2022-10-30T20:13:33.269Z,56.87
2022-10-30T20:16:05.143Z,57.39
2022-10-30T20:18:35.592Z,57.80
2022-10-30T20:21:08.229Z,58.15
2022-10-30T20:23:38.119Z,58.30
2022-10-30T20:26:08.632Z,58.28
2022-10-30T20:28:38.496Z,58.69
2022-10-30T20:31:07.609Z,59.03
2022-10-30T20:33:35.861Z,59.16
2022-10-30T20:36:04.062Z,59.09
2022-10-30T20:38:34.105Z,59.17
2022-10-30T20:41:05.566Z,59.01
2022-10-30T20:43:34.953Z,59.22
2022-10-30T20:46:04.944Z,59.32
2022-10-30T20:48:33.189Z,59.38
2022-10-30T20:51:02.338Z,59.32
2022-10-30T20:53:31.165Z,59.50
2022-10-30T20:55:59.363Z,59.99
2022-10-30T20:58:29.060Z,60.07
2022-10-30T21:00:58.092Z,60.06
2022-10-30T21:03:26.351Z,60.20
2022-10-30T21:05:57.087Z,60.38
2022-10-30T21:08:25.352Z,60.47
2022-10-30T21:10:53.509Z,60.53
2022-10-30T21:13:21.580Z,60.28
2022-10-30T21:15:51.495Z,60.25
2022-10-30T21:18:19.502Z,60.24
2022-10-30T21:20:47.547Z,60.24
2022-10-30T21:23:15.581Z,59.90
2022-10-30T21:25:43.548Z,59.86
2022-10-30T21:28:11.574Z,59.94
2022-10-30T21:30:39.609Z,60.13
2022-10-30T21:33:08.970Z,60.25
2022-10-30T21:35:36.973Z,60.10
2022-10-30T21:38:05.616Z,60.28
2022-10-30T21:40:33.649Z,60.31
2022-10-30T21:43:04.295Z,60.80
2022-10-30T21:45:33.003Z,60.76
2022-10-30T21:48:01.057Z,60.83
2022-10-30T21:50:30.402Z,60.73
2022-10-30T21:52:58.686Z,60.58
2022-10-30T21:55:26.923Z,60.64
2022-10-30T21:57:54.998Z,60.83
2022-10-30T22:00:23.153Z,60.44
2022-10-30T22:02:51.975Z,60.84
2022-10-30T22:05:20.019Z,60.96
2022-10-30T22:07:49.403Z,61.29
2022-10-30T22:10:17.624Z,61.41
2022-10-30T22:12:45.621Z,61.76
2022-10-30T22:15:13.660Z,61.74
2022-10-30T22:17:41.620Z,61.72
2022-10-30T22:20:11.413Z,62.02
2022-10-30T22:22:39.436Z,62.14
2022-10-30T22:25:09.419Z,62.02
2022-10-30T22:27:37.440Z,62.13
2022-10-30T22:30:06.327Z,62.02
2022-10-30T22:32:34.375Z,62.31
2022-10-30T22:35:02.667Z,62.25
2022-10-30T22:37:30.739Z,62.00
2022-10-30T22:39:58.854Z,62.18
2022-10-30T22:42:28.257Z,62.30
2022-10-30T22:44:56.258Z,62.08
2022-10-30T22:47:24.276Z,61.97
2022-10-30T22:49:52.250Z,62.01
2022-10-30T22:52:20.241Z,61.73
2022-10-30T22:54:48.238Z,61.67
2022-10-30T22:57:16.246Z,61.46
2022-10-30T22:59:45.619Z,61.40
2022-10-30T23:02:13.647Z,61.50
2022-10-30T23:04:41.668Z,61.67
2022-10-30T23:07:09.830Z,61.46
2022-10-30T23:09:37.824Z,61.67
2022-10-30T23:12:06.730Z,61.54
2022-10-30T23:14:34.836Z,61.59
2022-10-30T23:17:05.132Z,61.31
2022-10-30T23:19:33.210Z,61.33
2022-10-30T23:22:01.186Z,61.16
2022-10-30T23:24:29.220Z,61.27
2022-10-30T23:26:57.236Z,61.22
2022-10-30T23:29:25.269Z,61.09
2022-10-30T23:31:53.288Z,61.26
2022-10-30T23:34:22.643Z,61.23
2022-10-30T23:36:50.617Z,61.20
2022-10-30T23:39:19.481Z,61.12
2022-10-30T23:41:47.653Z,61.14
2022-10-30T23:44:16.948Z,61.17
2022-10-30T23:46:45.045Z,61.23
2022-10-30T23:49:13.075Z,61.23
2022-10-30T23:51:42.487Z,60.90
2022-10-30T23:54:10.599Z,60.65
2022-10-30T23:56:38.619Z,60.50
2022-10-30T23:59:06.781Z,60.37
